CEB357 RPLL-RPVR
Flight info
| Callsign | CEB357 |
|---|---|
| Flight time | 0h 36m |
| Altitude | 25000 |
| Route | IPATA2V IPATA DCT SAGRA TR16 SIBUN |
| Aircraft | A20N/M-SDE2E3FGHIRWXY/LB1 |
Departure
| Time | 2026-04-25 05:34 |
|---|---|
| Airport | Ninoy Aquino International Airport (RPLL) |
Arrival
| Time | 2026-04-25 06:11 |
|---|---|
| Airport | Roxas Airport (RPVR) |
| Time | Latitude | Longitude | Altitude | Speed | Heading |
|---|---|---|---|---|---|
| 2026-04-25 05:24 | 14.52199 | 121.01000 | 87 ft | 0 kts | 44° |
| 2026-04-25 05:27 | 14.52192 | 121.00993 | 59 ft | 2 kts | 46° |
| 2026-04-25 05:27 | 14.52180 | 121.00981 | 61 ft | 2 kts | 44° |
| 2026-04-25 05:27 | 14.52168 | 121.00969 | 65 ft | 2 kts | 44° |
| 2026-04-25 05:27 | 14.52156 | 121.00957 | 59 ft | 2 kts | 45° |
| 2026-04-25 05:28 | 14.52144 | 121.00944 | 59 ft | 2 kts | 45° |
| 2026-04-25 05:28 | 14.52133 | 121.00932 | 60 ft | 2 kts | 44° |
| 2026-04-25 05:28 | 14.52120 | 121.00921 | 59 ft | 2 kts | 21° |
| 2026-04-25 05:28 | 14.52106 | 121.00920 | 61 ft | 1 kts | 328° |
| 2026-04-25 05:29 | 14.52105 | 121.00921 | 61 ft | 0 kts | 321° |
| 2026-04-25 05:30 | 14.52116 | 121.00910 | 59 ft | 5 kts | 316° |
| 2026-04-25 05:31 | 14.52154 | 121.00871 | 64 ft | 10 kts | 315° |
| 2026-04-25 05:31 | 14.52211 | 121.00811 | 63 ft | 13 kts | 314° |
| 2026-04-25 05:31 | 14.52271 | 121.00750 | 65 ft | 12 kts | 315° |
| 2026-04-25 05:31 | 14.52340 | 121.00679 | 64 ft | 15 kts | 315° |
| 2026-04-25 05:32 | 14.52414 | 121.00603 | 68 ft | 13 kts | 315° |
| 2026-04-25 05:32 | 14.52477 | 121.00537 | 66 ft | 11 kts | 315° |
| 2026-04-25 05:32 | 14.52464 | 121.00472 | 67 ft | 11 kts | 226° |
| 2026-04-25 05:32 | 14.52410 | 121.00409 | 59 ft | 10 kts | 228° |
| 2026-04-25 05:33 | 14.52366 | 121.00397 | 61 ft | 6 kts | 141° |
| 2026-04-25 05:33 | 14.52344 | 121.00421 | 66 ft | 0 kts | 134° |
| 2026-04-25 05:33 | 14.52337 | 121.00428 | 64 ft | 3 kts | 134° |
| 2026-04-25 05:33 | 14.52315 | 121.00451 | 68 ft | 7 kts | 135° |
| 2026-04-25 05:34 | 14.52144 | 121.00628 | 60 ft | 72 kts | 135° |
| 2026-04-25 05:34 | 14.51640 | 121.01148 | 67 ft | 132 kts | 135° |
| 2026-04-25 05:34 | 14.50938 | 121.01873 | 351 ft | 155 kts | 135° |
| 2026-04-25 05:34 | 14.50206 | 121.02663 | 878 ft | 168 kts | 135° |
| 2026-04-25 05:35 | 14.49388 | 121.03509 | 1643 ft | 168 kts | 136° |
| 2026-04-25 05:35 | 14.48527 | 121.04367 | 2279 ft | 180 kts | 135° |
| 2026-04-25 05:35 | 14.47605 | 121.05322 | 2833 ft | 196 kts | 133° |
| 2026-04-25 05:35 | 14.46596 | 121.06379 | 3302 ft | 216 kts | 133° |
| 2026-04-25 05:36 | 14.45488 | 121.07531 | 3730 ft | 238 kts | 133° |
| 2026-04-25 05:36 | 14.44262 | 121.08791 | 4207 ft | 260 kts | 134° |
| 2026-04-25 05:36 | 14.43027 | 121.10192 | 5016 ft | 266 kts | 126° |
| 2026-04-25 05:36 | 14.42018 | 121.11769 | 5848 ft | 271 kts | 121° |
| 2026-04-25 05:37 | 14.40982 | 121.13457 | 6647 ft | 277 kts | 122° |
| 2026-04-25 05:37 | 14.39930 | 121.15153 | 7404 ft | 283 kts | 122° |
| 2026-04-25 05:37 | 14.38857 | 121.16880 | 8167 ft | 288 kts | 123° |
| 2026-04-25 05:37 | 14.37766 | 121.18636 | 8937 ft | 293 kts | 123° |
| 2026-04-25 05:38 | 14.36657 | 121.20422 | 9723 ft | 299 kts | 123° |
| 2026-04-25 05:38 | 14.35523 | 121.22247 | 10357 ft | 308 kts | 123° |
| 2026-04-25 05:38 | 14.34322 | 121.24175 | 10601 ft | 331 kts | 123° |
| 2026-04-25 05:38 | 14.33059 | 121.26204 | 10865 ft | 350 kts | 123° |
| 2026-04-25 05:39 | 14.31733 | 121.28334 | 11487 ft | 355 kts | 124° |
| 2026-04-25 05:39 | 14.30399 | 121.30477 | 12233 ft | 358 kts | 123° |
| 2026-04-25 05:39 | 14.29045 | 121.32649 | 12965 ft | 361 kts | 123° |
| 2026-04-25 05:39 | 14.27679 | 121.34841 | 13655 ft | 365 kts | 123° |
| 2026-04-25 05:40 | 14.26305 | 121.37048 | 14260 ft | 368 kts | 123° |
| 2026-04-25 05:40 | 14.24913 | 121.39282 | 14828 ft | 373 kts | 123° |
| 2026-04-25 05:40 | 14.23506 | 121.41541 | 15408 ft | 377 kts | 123° |
| 2026-04-25 05:40 | 14.22074 | 121.43837 | 15962 ft | 382 kts | 123° |
| 2026-04-25 05:41 | 14.20632 | 121.46147 | 16518 ft | 386 kts | 123° |
| 2026-04-25 05:41 | 14.19165 | 121.48493 | 17038 ft | 391 kts | 123° |
| 2026-04-25 05:41 | 14.17686 | 121.50857 | 17575 ft | 395 kts | 123° |
| 2026-04-25 05:41 | 14.16190 | 121.53248 | 18084 ft | 399 kts | 123° |
| 2026-04-25 05:42 | 14.14676 | 121.55667 | 18558 ft | 403 kts | 123° |
| 2026-04-25 05:42 | 14.13155 | 121.58098 | 19068 ft | 404 kts | 123° |
| 2026-04-25 05:42 | 14.11627 | 121.60540 | 19543 ft | 407 kts | 124° |
| 2026-04-25 05:42 | 14.09940 | 121.62877 | 20033 ft | 407 kts | 132° |
| 2026-04-25 05:43 | 14.07957 | 121.64960 | 20506 ft | 408 kts | 140° |
| 2026-04-25 05:43 | 14.05720 | 121.66771 | 21002 ft | 409 kts | 146° |
| 2026-04-25 05:43 | 14.03418 | 121.68507 | 21479 ft | 411 kts | 145° |
| 2026-04-25 05:43 | 14.01106 | 121.70265 | 21838 ft | 418 kts | 145° |
| 2026-04-25 05:44 | 13.98738 | 121.72070 | 22030 ft | 428 kts | 145° |
| 2026-04-25 05:44 | 13.96344 | 121.73896 | 22455 ft | 430 kts | 144° |
| 2026-04-25 05:44 | 13.93929 | 121.75739 | 22903 ft | 433 kts | 144° |
| 2026-04-25 05:44 | 13.91498 | 121.77592 | 23340 ft | 435 kts | 144° |
| 2026-04-25 05:45 | 13.89056 | 121.79453 | 23728 ft | 438 kts | 144° |
| 2026-04-25 05:45 | 13.86545 | 121.81231 | 24075 ft | 439 kts | 150° |
| 2026-04-25 05:45 | 13.83846 | 121.82708 | 24415 ft | 441 kts | 156° |
| 2026-04-25 05:45 | 13.81064 | 121.84068 | 24696 ft | 444 kts | 156° |
| 2026-04-25 05:46 | 13.80121 | 121.84532 | 24723 ft | 444 kts | 156° |
| 2026-04-25 05:46 | 13.77494 | 121.85828 | 24803 ft | 444 kts | 156° |
| 2026-04-25 05:46 | 13.74784 | 121.87168 | 24883 ft | 445 kts | 155° |
| 2026-04-25 05:47 | 13.72004 | 121.88543 | 24908 ft | 445 kts | 155° |
| 2026-04-25 05:47 | 13.69205 | 121.89928 | 24909 ft | 445 kts | 155° |
| 2026-04-25 05:47 | 13.66410 | 121.91310 | 24906 ft | 445 kts | 155° |
| 2026-04-25 05:47 | 13.63620 | 121.92688 | 24904 ft | 445 kts | 155° |
| 2026-04-25 05:48 | 13.60830 | 121.94066 | 24905 ft | 445 kts | 155° |
| 2026-04-25 05:48 | 13.58039 | 121.95444 | 24904 ft | 445 kts | 155° |
| 2026-04-25 05:48 | 13.55280 | 121.96806 | 24906 ft | 445 kts | 155° |
| 2026-04-25 05:48 | 13.52449 | 121.98203 | 24906 ft | 445 kts | 155° |
| 2026-04-25 05:49 | 13.49658 | 121.99580 | 24906 ft | 445 kts | 155° |
| 2026-04-25 05:49 | 13.46865 | 122.00956 | 24907 ft | 445 kts | 155° |
| 2026-04-25 05:49 | 13.44384 | 122.02179 | 24902 ft | 445 kts | 155° |
| 2026-04-25 05:49 | 13.41586 | 122.03559 | 24901 ft | 445 kts | 156° |
| 2026-04-25 05:50 | 13.38798 | 122.04933 | 24904 ft | 445 kts | 155° |
| 2026-04-25 05:50 | 13.36008 | 122.06308 | 24904 ft | 445 kts | 155° |
| 2026-04-25 05:50 | 13.33213 | 122.07684 | 24906 ft | 445 kts | 155° |
| 2026-04-25 05:50 | 13.30416 | 122.09062 | 24907 ft | 445 kts | 155° |
| 2026-04-25 05:51 | 13.27659 | 122.10419 | 24904 ft | 445 kts | 155° |
| 2026-04-25 05:51 | 13.24866 | 122.11795 | 24905 ft | 445 kts | 155° |
| 2026-04-25 05:51 | 13.22078 | 122.13166 | 24906 ft | 445 kts | 155° |
| 2026-04-25 05:51 | 13.19282 | 122.14542 | 24906 ft | 445 kts | 155° |
| 2026-04-25 05:52 | 13.16484 | 122.15918 | 24906 ft | 445 kts | 155° |
| 2026-04-25 05:52 | 13.13693 | 122.17290 | 24905 ft | 445 kts | 155° |
| 2026-04-25 05:52 | 13.10896 | 122.18665 | 24903 ft | 445 kts | 155° |
| 2026-04-25 05:52 | 13.08110 | 122.20034 | 24903 ft | 445 kts | 155° |
| 2026-04-25 05:53 | 13.05314 | 122.21408 | 24905 ft | 445 kts | 155° |
| 2026-04-25 05:53 | 13.02525 | 122.22778 | 24903 ft | 445 kts | 155° |
| 2026-04-25 05:53 | 12.99734 | 122.24149 | 24906 ft | 445 kts | 155° |
| 2026-04-25 05:53 | 12.96941 | 122.25520 | 24906 ft | 445 kts | 155° |
| 2026-04-25 05:54 | 12.94147 | 122.26891 | 24907 ft | 445 kts | 155° |
| 2026-04-25 05:54 | 12.91359 | 122.28259 | 24801 ft | 445 kts | 155° |
| 2026-04-25 05:54 | 12.85842 | 122.30966 | 24016 ft | 433 kts | 155° |
| 2026-04-25 05:55 | 12.83140 | 122.32291 | 23584 ft | 427 kts | 155° |
| 2026-04-25 05:55 | 12.80476 | 122.33597 | 23088 ft | 421 kts | 155° |
| 2026-04-25 05:55 | 12.77851 | 122.34883 | 22578 ft | 415 kts | 155° |
| 2026-04-25 05:55 | 12.75261 | 122.36152 | 22075 ft | 410 kts | 155° |
| 2026-04-25 05:56 | 12.72698 | 122.37407 | 21585 ft | 408 kts | 155° |
| 2026-04-25 05:56 | 12.70139 | 122.38659 | 21092 ft | 407 kts | 155° |
| 2026-04-25 05:56 | 12.67587 | 122.39908 | 20629 ft | 405 kts | 155° |
| 2026-04-25 05:56 | 12.65051 | 122.41149 | 20150 ft | 403 kts | 155° |
| 2026-04-25 05:57 | 12.62526 | 122.42383 | 19689 ft | 401 kts | 155° |
| 2026-04-25 05:57 | 12.60012 | 122.43613 | 19233 ft | 400 kts | 154° |
| 2026-04-25 05:57 | 12.57504 | 122.44839 | 18782 ft | 398 kts | 154° |
| 2026-04-25 05:57 | 12.55010 | 122.46059 | 18346 ft | 397 kts | 154° |
| 2026-04-25 05:58 | 12.52525 | 122.47274 | 17860 ft | 395 kts | 154° |
| 2026-04-25 05:58 | 12.50054 | 122.48482 | 17359 ft | 391 kts | 154° |
| 2026-04-25 05:58 | 12.47615 | 122.49675 | 16862 ft | 387 kts | 154° |
| 2026-04-25 05:58 | 12.45194 | 122.50859 | 16378 ft | 383 kts | 154° |
| 2026-04-25 05:59 | 12.42803 | 122.52027 | 15894 ft | 379 kts | 154° |
| 2026-04-25 05:59 | 12.40436 | 122.53184 | 15423 ft | 375 kts | 154° |
| 2026-04-25 05:59 | 12.38097 | 122.54320 | 14959 ft | 371 kts | 156° |
| 2026-04-25 05:59 | 12.35687 | 122.55228 | 14502 ft | 367 kts | 164° |
| 2026-04-25 06:00 | 12.33226 | 122.55879 | 14046 ft | 363 kts | 166° |
| 2026-04-25 06:00 | 12.30791 | 122.56524 | 13585 ft | 360 kts | 165° |
| 2026-04-25 06:00 | 12.28384 | 122.57168 | 13083 ft | 356 kts | 165° |
| 2026-04-25 06:00 | 12.25996 | 122.57807 | 12581 ft | 353 kts | 165° |
| 2026-04-25 06:01 | 12.23632 | 122.58440 | 12094 ft | 350 kts | 165° |
| 2026-04-25 06:01 | 12.21289 | 122.59067 | 11612 ft | 347 kts | 165° |
| 2026-04-25 06:01 | 12.18961 | 122.59690 | 11134 ft | 344 kts | 164° |
| 2026-04-25 06:01 | 12.16655 | 122.60307 | 10677 ft | 343 kts | 164° |
| 2026-04-25 06:02 | 12.14350 | 122.60923 | 10208 ft | 341 kts | 164° |
| 2026-04-25 06:02 | 12.12064 | 122.61534 | 9753 ft | 338 kts | 164° |
| 2026-04-25 06:02 | 12.09788 | 122.62117 | 9244 ft | 336 kts | 167° |
| 2026-04-25 06:02 | 12.07474 | 122.62408 | 8755 ft | 335 kts | 174° |
| 2026-04-25 06:03 | 12.05163 | 122.62589 | 8265 ft | 333 kts | 174° |
| 2026-04-25 06:03 | 12.02862 | 122.62778 | 7773 ft | 330 kts | 173° |
| 2026-04-25 06:03 | 12.00701 | 122.62958 | 7335 ft | 328 kts | 173° |
| 2026-04-25 06:03 | 11.98427 | 122.63147 | 6848 ft | 327 kts | 173° |
| 2026-04-25 06:04 | 11.96178 | 122.63335 | 6333 ft | 321 kts | 173° |
| 2026-04-25 06:04 | 11.93981 | 122.63518 | 5793 ft | 313 kts | 173° |
| 2026-04-25 06:04 | 11.91835 | 122.63696 | 5266 ft | 306 kts | 172° |
| 2026-04-25 06:04 | 11.89733 | 122.63872 | 4743 ft | 300 kts | 172° |
| 2026-04-25 06:05 | 11.87669 | 122.64045 | 4206 ft | 295 kts | 172° |
| 2026-04-25 06:05 | 11.85742 | 122.64205 | 3716 ft | 290 kts | 172° |
| 2026-04-25 06:05 | 11.83750 | 122.64372 | 3368 ft | 279 kts | 172° |
| 2026-04-25 06:05 | 11.81858 | 122.64527 | 3270 ft | 260 kts | 172° |
| 2026-04-25 06:06 | 11.80120 | 122.64669 | 3162 ft | 248 kts | 172° |
| 2026-04-25 06:06 | 11.78434 | 122.64810 | 3061 ft | 239 kts | 171° |
| 2026-04-25 06:06 | 11.76816 | 122.64946 | 2959 ft | 227 kts | 171° |
| 2026-04-25 06:06 | 11.75253 | 122.65078 | 2831 ft | 227 kts | 171° |
| 2026-04-25 06:07 | 11.73698 | 122.65241 | 2609 ft | 221 kts | 163° |
| 2026-04-25 06:07 | 11.72318 | 122.65822 | 2398 ft | 211 kts | 142° |
| 2026-04-25 06:07 | 11.71168 | 122.66721 | 2170 ft | 206 kts | 139° |
| 2026-04-25 06:07 | 11.70048 | 122.67596 | 2033 ft | 198 kts | 139° |
| 2026-04-25 06:08 | 11.69006 | 122.68392 | 1997 ft | 175 kts | 139° |
| 2026-04-25 06:08 | 11.68111 | 122.69066 | 1998 ft | 145 kts | 139° |
| 2026-04-25 06:08 | 11.67314 | 122.69665 | 1937 ft | 146 kts | 138° |
| 2026-04-25 06:08 | 11.66532 | 122.70265 | 1546 ft | 148 kts | 138° |
| 2026-04-25 06:09 | 11.65728 | 122.70878 | 1252 ft | 142 kts | 139° |
| 2026-04-25 06:09 | 11.64944 | 122.71478 | 944 ft | 138 kts | 140° |
| 2026-04-25 06:09 | 11.64190 | 122.72044 | 889 ft | 140 kts | 140° |
| 2026-04-25 06:09 | 11.63403 | 122.72642 | 714 ft | 140 kts | 139° |
| 2026-04-25 06:10 | 11.62642 | 122.73232 | 522 ft | 136 kts | 141° |
| 2026-04-25 06:10 | 11.61853 | 122.73789 | 364 ft | 137 kts | 142° |
| 2026-04-25 06:10 | 11.61073 | 122.74350 | 199 ft | 140 kts | 143° |
| 2026-04-25 06:10 | 11.60265 | 122.74928 | 17 ft | 141 kts | 141° |
| 2026-04-25 06:11 | 11.59606 | 122.75406 | 9 ft | 77 kts | 145° |
| 2026-04-25 06:11 | 11.59322 | 122.75608 | 7 ft | 31 kts | 143° |
| 2026-04-25 06:11 | 11.59195 | 122.75697 | 7 ft | 19 kts | 144° |
| 2026-04-25 06:11 | 11.59135 | 122.75741 | 8 ft | 1 kts | 144° |
| 2026-04-25 06:12 | 11.59115 | 122.75759 | 8 ft | 6 kts | 127° |
| 2026-04-25 06:12 | 11.59087 | 122.75778 | 7 ft | 1 kts | 217° |
| 2026-04-25 06:12 | 11.59088 | 122.75773 | 7 ft | 0 kts | 269° |
| 2026-04-25 06:12 | 11.59096 | 122.75761 | 8 ft | 5 kts | 310° |
| 2026-04-25 06:13 | 11.59160 | 122.75723 | 7 ft | 14 kts | 326° |
| 2026-04-25 06:13 | 11.59254 | 122.75656 | 7 ft | 18 kts | 324° |
| 2026-04-25 06:13 | 11.59362 | 122.75579 | 7 ft | 18 kts | 325° |
| 2026-04-25 06:14 | 11.59589 | 122.75418 | 8 ft | 22 kts | 323° |
| 2026-04-25 06:14 | 11.59716 | 122.75325 | 10 ft | 23 kts | 325° |
| 2026-04-25 06:14 | 11.59847 | 122.75232 | 9 ft | 23 kts | 325° |
| 2026-04-25 06:14 | 11.59938 | 122.75168 | 9 ft | 24 kts | 325° |
| 2026-04-25 06:15 | 11.60046 | 122.75090 | 9 ft | 17 kts | 324° |
| 2026-04-25 06:15 | 11.60083 | 122.75063 | 5 ft | 3 kts | 321° |
| 2026-04-25 06:15 | 11.60092 | 122.75011 | 7 ft | 12 kts | 262° |
| 2026-04-25 06:15 | 11.60086 | 122.74959 | 7 ft | 5 kts | 265° |
| 2026-04-25 06:16 | 11.60086 | 122.74944 | 7 ft | 2 kts | 267° |
| 2026-04-25 06:16 | 11.60084 | 122.74922 | 7 ft | 0 kts | 265° |
| 2026-04-25 06:16 | 11.60083 | 122.74917 | 9 ft | 0 kts | 265° |